Time;durP1;ratioP1;P1;durP2;ratioP2;P2;SDS_P1;SDS_P2;PMS_P1;PMS_P2;Temp;Humidity;BMP_temperature;BMP_pressure;BME280_temperature;BME280_humidity;BME280_pressure;Samples;Min_cycle;Max_cycle;Signal;HPM_P1;HPM_P2
2022/10/13 00:01:57;;;;;;;24.17;8.75;;;;;;;9.96;100.00;99820.84;4309892;33;20053;-71
2022/10/13 00:04:25;;;;;;;21.35;9.90;;;;;;;9.55;100.00;99773.16;4309707;33;20044;-71
2022/10/13 00:06:51;;;;;;;27.67;8.75;;;;;;;9.50;100.00;99743.44;4310235;33;20056;-70
2022/10/13 00:09:22;;;;;;;21.02;8.02;;;;;;;9.91;100.00;99814.50;4308558;33;20025;-71
2022/10/13 00:11:48;;;;;;;25.52;9.23;;;;;;;9.96;100.00;99823.53;4309792;33;20090;-71
2022/10/13 00:14:15;;;;;;;22.02;8.25;;;;;;;9.98;100.00;99815.25;4310046;33;20036;-71
2022/10/13 00:16:41;;;;;;;20.73;8.15;;;;;;;10.01;100.00;99809.41;4309391;33;20431;-71
2022/10/13 00:19:07;;;;;;;14.45;7.50;;;;;;;10.07;100.00;99815.72;4308552;33;20099;-76
2022/10/13 00:21:34;;;;;;;23.05;8.75;;;;;;;10.08;100.00;99818.19;4312278;33;20082;-71
2022/10/13 00:24:00;;;;;;;22.62;8.80;;;;;;;10.02;100.00;99810.22;4315329;33;20097;-71
2022/10/13 00:26:26;;;;;;;26.50;8.40;;;;;;;9.77;100.00;99779.69;4295430;33;20082;-70
2022/10/13 00:28:54;;;;;;;17.02;8.75;;;;;;;9.76;100.00;99778.03;4311498;33;20067;-70
2022/10/13 00:31:31;;;;;;;19.37;9.25;;;;;;;9.99;100.00;99803.44;4322471;33;20080;-73
2022/10/13 00:33:59;;;;;;;16.65;7.00;;;;;;;9.74;100.00;99782.84;4322196;33;20403;-71
2022/10/13 00:36:27;;;;;;;16.37;6.93;;;;;;;9.78;100.00;99789.41;4310478;33;20037;-72
2022/10/13 00:38:53;;;;;;;21.00;8.00;;;;;;;9.60;100.00;99762.53;4307493;33;20173;-77
2022/10/13 00:41:20;;;;;;;16.15;7.40;;;;;;;9.42;100.00;99736.47;4310243;33;20110;-72
2022/10/13 00:43:58;;;;;;;25.67;8.27;;;;;;;9.80;100.00;99795.37;4321974;33;20196;-72
2022/10/13 00:46:36;;;;;;;22.45;9.02;;;;;;;9.84;100.00;99797.63;4317696;33;20056;-72
2022/10/13 00:49:13;;;;;;;15.57;6.85;;;;;;;9.83;100.00;99794.13;4309939;33;20072;-72
2022/10/13 00:51:48;;;;;;;16.77;7.47;;;;;;;9.58;100.00;99759.25;4308705;33;20045;-71
2022/10/13 00:54:21;;;;;;;14.02;6.70;;;;;;;9.79;100.00;99799.09;4312872;33;20075;-78
2022/10/13 00:56:50;;;;;;;13.62;7.35;;;;;;;9.80;100.00;99798.06;4295489;33;20169;-72
2022/10/13 00:59:23;;;;;;;20.67;7.68;;;;;;;9.77;100.00;99808.47;4292782;33;20041;-71
2022/10/13 01:01:53;;;;;;;22.15;6.62;;;;;;;9.69;100.00;99806.91;4279962;33;20195;-72
2022/10/13 01:04:21;;;;;;;19.85;8.27;;;;;;;9.69;100.00;99801.53;4251997;33;20420;-71
2022/10/13 01:06:48;;;;;;;19.73;7.37;;;;;;;9.62;100.00;99790.00;4252667;33;20054;-72
2022/10/13 01:09:15;;;;;;;15.38;6.87;;;;;;;9.67;100.00;99795.56;4241460;33;20076;-72
2022/10/13 01:12:04;;;;;;;16.17;6.78;;;;;;;9.64;100.00;99793.31;4252626;33;20030;-72
2022/10/13 01:14:47;;;;;;;19.92;7.07;;;;;;;9.64;100.00;99793.31;4242166;33;20406;-72
2022/10/13 01:17:52;;;;;;;14.05;6.75;;;;;;;9.54;100.00;99779.56;4265757;33;20397;-72
2022/10/13 01:20:40;;;;;;;15.25;7.53;;;;;;;9.52;100.00;99785.16;4266413;33;20046;-72
2022/10/13 01:23:22;;;;;;;24.67;7.07;;;;;;;9.42;100.00;99784.88;4252520;33;20432;-72
2022/10/13 01:25:55;;;;;;;18.73;6.82;;;;;;;9.15;100.00;99735.97;4250748;33;20401;-73
2022/10/13 01:28:59;;;;;;;15.32;5.97;;;;;;;9.19;100.00;99743.34;4234489;33;20068;-73
2022/10/13 01:31:40;;;;;;;21.37;5.72;;;;;;;9.40;100.00;99768.97;4218019;33;20070;-71
2022/10/13 01:34:12;;;;;;;20.60;6.15;;;;;;;9.08;100.00;99720.72;4221296;34;20042;-72
2022/10/13 01:36:46;;;;;;;19.20;6.90;;;;;;;9.12;100.00;99765.97;4236698;33;20051;-72
2022/10/13 01:39:20;;;;;;;20.80;6.35;;;;;;;9.03;100.00;99765.41;4229592;33;20034;-73
2022/10/13 01:41:53;;;;;;;25.92;6.93;;;;;;;9.20;100.00;99760.28;4223676;34;20089;-73
2022/10/13 01:44:29;;;;;;;18.25;6.45;;;;;;;9.02;100.00;99737.72;4222615;34;20061;-72
2022/10/13 01:46:57;;;;;;;20.10;6.18;;;;;;;9.16;100.00;99748.31;4240440;33;20037;-72
2022/10/13 01:49:27;;;;;;;14.95;6.15;;;;;;;8.79;100.00;99737.53;4251819;33;20056;-72
2022/10/13 01:51:58;;;;;;;17.23;6.85;;;;;;;8.78;100.00;99725.19;4251445;33;20326;-72
2022/10/13 01:54:32;;;;;;;18.95;6.07;;;;;;;8.96;100.00;99738.62;4260702;33;20041;-71
2022/10/13 01:56:58;;;;;;;16.75;5.87;;;;;;;9.03;100.00;99727.81;4264602;33;20041;-75
2022/10/13 01:59:27;;;;;;;22.55;6.68;;;;;;;9.22;100.00;99744.75;4277497;33;20067;-73
2022/10/13 02:02:16;;;;;;;11.98;4.80;;;;;;;9.25;100.00;99715.59;4302610;33;20041;-72
2022/10/13 02:08:02;;;;;;;15.07;5.87;;;;;;;9.31;100.00;99724.63;4254890;33;20200;-74
2022/10/13 02:10:45;;;;;;;16.35;6.78;;;;;;;8.92;100.00;99732.06;4278566;33;20472;-71
2022/10/13 02:13:16;;;;;;;14.25;6.47;;;;;;;8.75;100.00;99683.47;4251775;33;20042;-71
2022/10/13 02:15:46;;;;;;;20.03;7.57;;;;;;;9.19;100.00;99721.88;4240215;33;20660;-76
2022/10/13 02:18:16;;;;;;;13.00;5.95;;;;;;;9.19;100.00;99711.13;4249696;33;20151;-71
2022/10/13 02:20:44;;;;;;;22.45;6.78;;;;;;;8.99;100.00;99719.37;4251189;33;20091;-71
2022/10/13 02:23:15;;;;;;;27.80;6.25;;;;;;;8.78;100.00;99714.44;4246197;33;20410;-71
2022/10/13 02:25:44;;;;;;;21.40;7.05;;;;;;;8.89;100.00;99673.41;4229731;33;20501;-71
2022/10/13 02:28:13;;;;;;;27.45;7.45;;;;;;;9.00;100.00;99693.31;4225523;33;20245;-71
2022/10/13 02:30:43;;;;;;;16.67;8.10;;;;;;;9.20;100.00;99717.28;4225585;33;20038;-72
2022/10/13 02:33:11;;;;;;;20.25;7.25;;;;;;;9.09;100.00;99676.72;4237450;33;20494;-76
2022/10/13 02:35:37;;;;;;;17.55;7.25;;;;;;;9.38;100.00;99703.87;4241506;33;20050;-74
2022/10/13 02:38:05;;;;;;;21.52;7.47;;;;;;;9.39;100.00;99716.25;4251952;33;20030;-72
2022/10/13 02:40:32;;;;;;;27.02;8.60;;;;;;;9.08;100.00;99685.81;4264661;33;20034;-72
2022/10/13 02:42:58;;;;;;;21.75;7.40;;;;;;;9.29;100.00;99710.59;4263785;33;20033;-72
2022/10/13 02:45:24;;;;;;;22.83;6.95;;;;;;;9.03;100.00;99680.28;4276763;33;20067;-72
2022/10/13 02:47:54;;;;;;;17.17;7.10;;;;;;;9.07;100.00;99702.97;4279296;33;20358;-72
2022/10/13 02:50:20;;;;;;;17.33;7.07;;;;;;;9.21;100.00;99724.31;4263716;33;20126;-72
2022/10/13 02:52:49;;;;;;;21.40;7.20;;;;;;;9.22;100.00;99717.88;4265349;33;20060;-72
2022/10/13 02:55:16;;;;;;;20.33;7.45;;;;;;;9.34;100.00;99704.53;4263526;33;20054;-77
2022/10/13 02:57:43;;;;;;;18.83;7.37;;;;;;;9.03;100.00;99672.22;4265151;33;20365;-73
2022/10/13 03:00:10;;;;;;;22.05;7.97;;;;;;;8.95;100.00;99656.41;4303519;33;20102;-73
2022/10/13 03:02:36;;;;;;;24.75;8.18;;;;;;;9.22;100.00;99699.06;4292224;33;20041;-72
2022/10/13 03:05:03;;;;;;;20.55;8.00;;;;;;;8.52;100.00;99655.41;4294256;33;20165;-72
2022/10/13 03:07:29;;;;;;;27.98;8.23;;;;;;;8.89;100.00;99658.13;4292012;33;20029;-74
2022/10/13 03:09:56;;;;;;;27.92;8.98;;;;;;;8.98;100.00;99708.84;4294047;33;20975;-73
2022/10/13 03:12:22;;;;;;;22.67;8.57;;;;;;;9.31;100.00;99692.38;4293475;33;20176;-73
2022/10/13 03:14:48;;;;;;;23.65;8.73;;;;;;;9.21;100.00;99694.78;4293684;33;20618;-72
2022/10/13 03:17:15;;;;;;;30.98;8.65;;;;;;;9.23;100.00;99695.34;4292268;33;20059;-72
2022/10/13 03:19:41;;;;;;;25.52;8.52;;;;;;;9.40;100.00;99707.16;4307223;33;20058;-75
2022/10/13 03:22:09;;;;;;;18.08;8.85;;;;;;;9.36;100.00;99702.44;4306548;33;20070;-74
2022/10/13 03:24:36;;;;;;;22.02;8.50;;;;;;;8.71;100.00;99624.03;4308435;33;20057;-72
2022/10/13 03:27:02;;;;;;;28.10;9.80;;;;;;;9.10;100.00;99707.06;4307065;33;20045;-72
2022/10/13 03:29:28;;;;;;;24.65;9.52;;;;;;;9.16;100.00;99700.81;4279136;33;20037;-73
2022/10/13 03:31:55;;;;;;;18.20;8.02;;;;;;;9.09;100.00;99703.56;4277026;33;20420;-72
2022/10/13 03:34:22;;;;;;;30.98;10.07;;;;;;;9.01;100.00;99693.09;4281395;33;20053;-72
2022/10/13 03:36:48;;;;;;;24.58;8.80;;;;;;;8.84;100.00;99705.47;4278437;33;20041;-72
2022/10/13 03:39:15;;;;;;;25.12;9.55;;;;;;;8.70;100.00;99708.28;4292072;33;20040;-72
2022/10/13 03:41:41;;;;;;;27.50;8.98;;;;;;;8.60;100.00;99667.72;4284575;33;20072;-77
2022/10/13 03:44:11;;;;;;;26.52;10.15;;;;;;;8.59;100.00;99663.38;4277922;33;20489;-72
2022/10/13 03:46:38;;;;;;;23.05;8.73;;;;;;;8.54;100.00;99665.91;4248737;33;20064;-72
2022/10/13 03:49:11;;;;;;;20.23;10.10;;;;;;;8.73;100.00;99713.22;4250963;33;20078;-71
2022/10/13 03:51:38;;;;;;;24.37;9.75;;;;;;;8.70;100.00;99702.91;4249999;33;20170;-76
2022/10/13 03:54:04;;;;;;;23.67;9.70;;;;;;;8.82;100.00;99691.44;4250862;33;20074;-72
2022/10/13 03:56:31;;;;;;;16.87;8.88;;;;;;;8.84;100.00;99706.31;4253480;33;20034;-71
2022/10/13 03:58:59;;;;;;;27.30;10.13;;;;;;;8.90;100.00;99696.53;4268040;33;20045;-71
2022/10/13 04:01:28;;;;;;;28.23;9.27;;;;;;;8.82;100.00;99700.34;4248969;33;20046;-70
2022/10/13 04:03:56;;;;;;;21.73;9.13;;;;;;;8.86;100.00;99706.09;4239242;33;20064;-71
2022/10/13 04:06:24;;;;;;;25.80;8.52;;;;;;;8.78;100.00;99709.88;4239027;33;20050;-71
2022/10/13 04:08:51;;;;;;;19.02;9.52;;;;;;;8.65;100.00;99667.88;4239420;33;20370;-72
2022/10/13 04:11:18;;;;;;;26.58;9.30;;;;;;;8.78;100.00;99677.66;4239175;33;20093;-71
2022/10/13 04:13:50;;;;;;;;;;;;;;;8.68;100.00;99647.78;4252070;33;20093;-72
2022/10/13 04:16:25;;;;;;;19.25;8.90;;;;;;;9.06;100.00;99695.13;4252727;33;19960;-70
2022/10/13 04:18:56;;;;;;;24.45;8.57;;;;;;;8.79;100.00;99699.94;4267081;33;20049;-70
2022/10/13 04:21:23;;;;;;;22.20;9.07;;;;;;;8.79;100.00;99695.41;4266398;33;20062;-77
2022/10/13 04:23:50;;;;;;;19.27;7.55;;;;;;;8.75;100.00;99698.75;4251911;33;20226;-70
2022/10/13 04:26:21;;;;;;;21.42;9.02;;;;;;;8.68;100.00;99677.31;4251701;33;20035;-71
2022/10/13 04:28:49;;;;;;;22.27;8.68;;;;;;;8.94;100.00;99697.75;4251818;33;20039;-70
2022/10/13 04:31:15;;;;;;;27.35;9.20;;;;;;;9.02;100.00;99708.19;4291182;33;20037;-77
2022/10/13 04:33:43;;;;;;;21.73;8.02;;;;;;;8.98;100.00;99708.84;4279194;33;20083;-71
2022/10/13 04:36:11;;;;;;;19.42;8.35;;;;;;;8.92;100.00;99707.88;4281516;33;20042;-71
2022/10/13 04:38:44;;;;;;;25.02;9.63;;;;;;;8.80;100.00;99712.34;4281759;33;20072;-71
2022/10/13 04:41:13;;;;;;;22.50;8.65;;;;;;;8.77;100.00;99707.41;4279284;33;20199;-75
2022/10/13 04:43:39;;;;;;;31.95;11.10;;;;;;;8.99;100.00;99703.25;4281656;33;20076;-71
2022/10/13 04:46:11;;;;;;;22.77;9.82;;;;;;;8.85;100.00;99709.81;4277279;33;20283;-71
2022/10/13 04:48:38;;;;;;;20.95;9.38;;;;;;;8.88;100.00;99704.00;4272588;33;20060;-71
2022/10/13 04:51:07;;;;;;;23.40;8.35;;;;;;;8.76;100.00;99703.91;4278914;33;20059;-71
2022/10/13 04:53:35;;;;;;;24.17;8.77;;;;;;;8.80;100.00;99715.03;4264443;33;20090;-71
2022/10/13 04:56:07;;;;;;;22.48;8.55;;;;;;;8.45;100.00;99664.53;4266298;33;20063;-71
2022/10/13 04:58:34;;;;;;;26.65;10.00;;;;;;;8.46;100.00;99668.88;4266422;33;20052;-76
2022/10/13 05:01:04;;;;;;;21.55;9.75;;;;;;;8.32;100.00;99665.44;4243972;33;20224;-71
2022/10/13 05:03:31;;;;;;;20.12;9.20;;;;;;;8.38;100.00;99656.53;4238782;33;20060;-71
2022/10/13 05:05:57;;;;;;;25.67;9.35;;;;;;;8.61;100.00;99688.13;4279761;33;20034;-71
2022/10/13 05:08:24;;;;;;;22.08;8.98;;;;;;;8.75;100.00;99688.84;4281255;33;20064;-71
2022/10/13 05:10:54;;;;;;;29.45;9.40;;;;;;;8.56;100.00;99658.44;4279434;33;20116;-76
2022/10/13 05:13:21;;;;;;;18.87;8.88;;;;;;;9.00;100.00;99704.91;4281013;33;20093;-73
2022/10/13 05:15:49;;;;;;;26.33;10.75;;;;;;;8.80;100.00;99680.13;4278717;33;20071;-70
2022/10/13 05:18:16;;;;;;;20.02;8.90;;;;;;;8.88;100.00;99698.63;4277648;33;20451;-70
2022/10/13 05:20:42;;;;;;;25.40;8.68;;;;;;;8.97;100.00;99708.03;4280372;33;20053;-71
2022/10/13 05:23:08;;;;;;;21.73;10.00;;;;;;;8.93;100.00;99706.81;4278953;33;20033;-71
2022/10/13 05:25:36;;;;;;;21.10;8.98;;;;;;;8.71;100.00;99699.19;4280988;33;20874;-71
2022/10/13 05:28:04;;;;;;;23.75;9.35;;;;;;;8.95;100.00;99693.19;4279245;33;20060;-70
2022/10/13 05:30:31;;;;;;;19.80;9.25;;;;;;;8.98;100.00;99698.91;4275038;33;20029;-70
2022/10/13 05:32:59;;;;;;;23.50;9.52;;;;;;;9.00;100.00;99702.22;4278907;33;20067;-71
2022/10/13 05:35:26;;;;;;;21.98;9.10;;;;;;;8.83;100.00;99695.78;4280437;33;20061;-70
2022/10/13 05:37:52;;;;;;;20.85;8.68;;;;;;;8.84;100.00;99665.19;4280056;33;20067;-70
2022/10/13 05:40:22;;;;;;;24.02;8.60;;;;;;;8.96;100.00;99692.16;4279575;33;20344;-71
2022/10/13 05:42:59;;;;;;;19.25;9.02;;;;;;;9.22;100.00;99709.81;4276356;33;20164;-71
2022/10/13 05:45:28;;;;;;;23.42;8.65;;;;;;;9.01;100.00;99660.06;4277926;33;20524;-73
2022/10/13 05:47:55;;;;;;;20.62;9.23;;;;;;;9.39;100.00;99716.25;4276559;33;20196;-76
2022/10/13 05:50:23;;;;;;;27.60;8.13;;;;;;;9.32;100.00;99717.34;4279340;33;20115;-77
2022/10/13 05:52:50;;;;;;;27.50;9.02;;;;;;;9.43;100.00;99720.13;4280051;33;20033;-77
2022/10/13 05:55:18;;;;;;;26.45;8.68;;;;;;;9.51;100.00;99715.47;4417848;27;20401;-77
2022/10/13 05:57:50;;;;;;;23.05;9.07;;;;;;;9.47;100.00;99719.69;4306947;33;20041;-78
2022/10/13 06:00:29;;;;;;;23.35;9.00;;;;;;;9.40;100.00;99700.97;4305665;33;20095;-77
2022/10/13 06:03:01;;;;;;;23.80;8.38;;;;;;;9.57;100.00;99701.97;4304707;33;20045;-78
2022/10/13 06:05:30;;;;;;;28.62;8.40;;;;;;;9.51;100.00;99718.16;4306517;33;20067;-78
2022/10/13 06:07:57;;;;;;;18.85;8.82;;;;;;;9.33;100.00;99671.44;4309835;33;20049;-78
2022/10/13 06:10:25;;;;;;;26.95;8.98;;;;;;;9.29;100.00;99672.16;4309019;33;20518;-78
2022/10/13 06:12:51;;;;;;;17.62;8.07;;;;;;;9.42;100.00;99694.28;4307047;33;20048;-77
2022/10/13 06:15:17;;;;;;;26.27;8.15;;;;;;;9.79;100.00;99710.34;4310387;33;20461;-78
2022/10/13 06:17:44;;;;;;;17.45;7.75;;;;;;;9.51;100.00;99665.25;4308516;33;20360;-78
2022/10/13 06:20:10;;;;;;;28.48;8.30;;;;;;;9.37;100.00;99653.84;4310431;33;20036;-77
2022/10/13 06:22:37;;;;;;;28.02;8.48;;;;;;;10.11;100.00;99709.31;4310515;33;20078;-77
2022/10/13 06:25:05;;;;;;;21.35;9.73;;;;;;;10.02;100.00;99702.59;4310676;33;20532;-78
2022/10/13 06:27:32;;;;;;;24.63;8.57;;;;;;;10.13;100.00;99709.88;4311508;33;20078;-80
2022/10/13 06:29:58;;;;;;;28.62;7.78;;;;;;;9.52;100.00;99639.97;4311495;33;20049;-80
2022/10/13 06:32:25;;;;;;;29.12;9.50;;;;;;;9.84;100.00;99679.28;4311519;33;20435;-78
2022/10/13 06:34:51;;;;;;;23.98;9.10;;;;;;;10.06;100.00;99691.16;4310674;33;20063;-77
2022/10/13 06:37:18;;;;;;;23.02;9.50;;;;;;;9.81;100.00;99659.03;4309698;33;20049;-80
2022/10/13 06:39:44;;;;;;;26.02;8.60;;;;;;;10.36;100.00;99671.47;4311531;33;20036;-79
2022/10/13 06:42:11;;;;;;;24.92;8.10;;;;;;;10.35;100.00;99702.13;4311678;33;20048;-78
2022/10/13 06:44:37;;;;;;;16.83;7.87;;;;;;;10.51;100.00;99685.31;4309743;33;20040;-78
2022/10/13 06:47:04;;;;;;;21.85;8.30;;;;;;;10.64;100.00;99683.41;4310006;33;20271;-79
2022/10/13 06:49:30;;;;;;;17.37;7.25;;;;;;;10.85;100.00;99690.94;4310225;33;20898;-81
2022/10/13 06:51:57;;;;;;;27.40;7.10;;;;;;;10.75;100.00;99696.06;4308458;33;20171;-79
2022/10/13 06:54:23;;;;;;;17.08;6.05;;;;;;;11.01;100.00;99699.31;4309708;33;20041;-80
2022/10/13 06:56:50;;;;;;;23.05;6.85;;;;;;;10.77;100.00;99650.87;4307227;33;20194;-80
2022/10/13 06:59:17;;;;;;;18.45;6.45;;;;;;;10.45;100.00;99643.16;4294637;33;20044;-80
2022/10/13 07:01:46;;;;;;;16.33;7.25;;;;;;;10.96;100.00;99691.13;4293531;33;20107;-80
2022/10/13 07:04:14;;;;;;;22.55;6.68;;;;;;;10.80;100.00;99649.56;4295114;33;20496;-80
2022/10/13 07:06:41;;;;;;;19.83;7.90;;;;;;;11.27;100.00;99704.22;4294739;33;20033;-79
2022/10/13 07:09:08;;;;;;;17.62;6.87;;;;;;;10.62;100.00;99647.84;4280483;33;20064;-81
2022/10/13 07:11:37;;;;;;;13.93;5.57;;;;;;;11.15;100.00;99700.72;4273637;33;20194;-80
2022/10/13 07:14:05;;;;;;;14.65;5.40;;;;;;;10.92;100.00;99652.25;4273066;33;20049;-79
2022/10/13 07:16:32;;;;;;;23.20;7.35;;;;;;;11.19;100.00;99680.31;4276114;33;20437;-79
2022/10/13 07:18:58;;;;;;;18.75;5.82;;;;;;;11.18;100.00;99678.69;4268026;33;20047;-79
2022/10/13 07:21:25;;;;;;;19.92;7.15;;;;;;;11.10;100.00;99641.31;4279698;33;20053;-80
2022/10/13 07:23:52;;;;;;;20.23;5.97;;;;;;;10.99;100.00;99674.50;4278597;33;20185;-79
2022/10/13 07:26:18;;;;;;;20.73;6.62;;;;;;;11.53;100.00;99669.66;4278462;33;20072;-80
2022/10/13 07:28:45;;;;;;;21.02;5.78;;;;;;;11.11;100.00;99632.19;4278078;33;20505;-79
2022/10/13 07:31:20;;;;;;;15.55;6.15;;;;;;;11.32;100.00;99646.06;4247448;33;20369;-79
2022/10/13 07:33:48;;;;;;;19.77;6.10;;;;;;;11.23;100.00;99630.28;4251590;33;20389;-80
2022/10/13 07:36:17;;;;;;;18.67;6.53;;;;;;;11.23;100.00;99600.62;4265456;33;20064;-79
2022/10/13 07:38:45;;;;;;;14.27;5.85;;;;;;;11.68;100.00;99666.47;4264496;33;20351;-77
2022/10/13 07:41:13;;;;;;;19.23;5.97;;;;;;;12.45;100.00;99653.47;4257419;33;20078;-80
2022/10/13 07:43:45;;;;;;;15.85;4.85;;;;;;;11.63;100.00;99653.69;4251270;33;20034;-79
2022/10/13 07:46:14;;;;;;;27.62;5.62;;;;;;;11.91;100.00;99606.16;4250841;33;20080;-79
2022/10/13 07:48:40;;;;;;;19.35;6.40;;;;;;;12.46;100.00;99645.13;4256490;33;20053;-79
2022/10/13 07:51:10;;;;;;;19.08;4.85;;;;;;;11.70;100.00;99598.78;4261961;33;20127;-79
2022/10/13 07:53:37;;;;;;;15.63;5.25;;;;;;;11.92;100.00;99640.22;4265498;33;20049;-80
2022/10/13 07:56:05;;;;;;;25.67;6.50;;;;;;;11.96;100.00;99640.53;4267700;33;20034;-79
2022/10/13 07:58:36;;;;;;;17.25;5.85;;;;;;;11.97;100.00;99610.59;4274647;33;20049;-80
2022/10/13 08:01:04;;;;;;;12.77;6.07;;;;;;;12.05;100.00;99595.09;4262610;33;20053;-78
2022/10/13 08:03:32;;;;;;;16.12;5.22;;;;;;;12.21;100.00;99599.66;4308707;33;20079;-80
2022/10/13 08:05:59;;;;;;;14.50;4.78;;;;;;;12.14;100.00;99598.97;4308358;33;20160;-80
2022/10/13 08:08:31;;;;;;;11.63;5.25;;;;;;;11.62;100.00;99638.56;4296864;33;20041;-81
2022/10/13 08:11:13;;;;;;;20.67;4.82;;;;;;;12.18;100.00;99635.22;4334055;33;20118;-84
2022/10/13 08:13:40;;;;;;;12.18;4.93;;;;;;;12.03;100.00;99586.38;4336823;33;20183;-80
2022/10/13 08:16:09;;;;;;;14.77;5.15;;;;;;;12.58;100.00;99631.53;4323985;33;20037;-80
2022/10/13 08:18:35;;;;;;;10.20;4.62;;;;;;;12.30;100.00;99625.19;4322000;33;20044;-83
2022/10/13 08:21:03;;;;;;;21.05;5.32;;;;;;;12.47;100.00;99630.53;4331948;33;20062;-85
2022/10/13 08:23:31;;;;;;;22.20;5.07;;;;;;;12.46;100.00;99584.88;4332688;33;20093;-82
2022/10/13 08:25:57;;;;;;;18.42;6.45;;;;;;;12.55;100.00;99583.38;4337134;33;20058;-83
2022/10/13 08:28:27;;;;;;;19.87;4.93;;;;;;;12.57;100.00;99589.34;4321942;33;20248;-82
2022/10/13 08:30:56;;;;;;;12.45;5.18;;;;;;;12.86;100.00;99589.19;4320279;33;20533;-85
2022/10/13 08:33:24;;;;;;;15.48;6.25;;;;;;;12.41;100.00;99615.31;4323164;33;20840;-82
2022/10/13 08:35:52;;;;;;;11.38;4.93;;;;;;;12.96;100.00;99627.16;4321996;33;20048;-83
2022/10/13 08:38:19;;;;;;;16.02;5.00;;;;;;;13.19;100.00;99622.59;4322642;33;20070;-83
2022/10/13 08:40:48;;;;;;;14.87;4.60;;;;;;;13.12;100.00;99597.63;4323731;33;20436;-85
2022/10/13 08:43:17;;;;;;;16.87;6.78;;;;;;;13.02;100.00;99619.94;4296368;33;20080;-82
2022/10/13 08:45:47;;;;;;;21.92;4.80;;;;;;;12.87;100.00;99624.06;4338273;33;20066;-81
2022/10/13 08:48:23;;;;;;;14.40;5.03;;;;;;;12.45;100.00;99577.84;4338737;33;20039;-82
2022/10/13 08:50:53;;;;;;;9.85;4.72;;;;;;;12.99;100.00;99621.28;4336684;33;20036;-85
2022/10/13 08:53:30;;;;;;;34.15;5.70;;;;;;;12.47;100.00;99576.53;4338776;32;20452;-82
2022/10/13 08:56:14;;;;;;;13.38;5.85;;;;;;;13.20;100.00;99599.88;4338192;33;20082;-83
2022/10/13 08:58:42;;;;;;;20.33;5.00;;;;;;;13.53;100.00;99576.44;4337301;33;20439;-83
2022/10/13 09:01:22;;;;;;;26.67;5.82;;;;;;;13.75;100.00;99574.50;4323431;33;20489;-83
2022/10/13 09:04:14;;;;;;;13.55;5.32;;;;;;;13.95;100.00;99616.34;4323797;33;20722;-82
2022/10/13 09:06:51;;;;;;;12.93;4.12;;;;;;;13.53;100.00;99598.09;4323254;33;20114;-82
2022/10/13 09:09:17;;;;;;;16.25;5.07;;;;;;;13.29;100.00;99557.81;4323779;33;20044;-84
2022/10/13 09:11:47;;;;;;;17.45;5.12;;;;;;;13.82;100.00;99612.19;4263974;33;20395;-83
2022/10/13 09:14:36;;;;;;;22.60;5.60;;;;;;;13.21;100.00;99605.03;4265941;33;20474;-81
2022/10/13 09:17:19;;;;;;;14.98;5.75;;;;;;;13.36;100.00;99609.81;4248611;33;20431;-83
2022/10/13 09:20:04;;;;;;;13.52;5.25;;;;;;;13.49;100.00;99556.41;4222683;34;20076;-83
2022/10/13 09:22:38;;;;;;;18.60;4.53;;;;;;;14.00;100.00;99597.44;4222807;34;20073;-82
2022/10/13 09:25:10;;;;;;;11.85;5.55;;;;;;;13.38;100.00;99541.97;4221291;34;20436;-84
2022/10/13 09:27:51;;;;;;;20.40;5.00;;;;;;;13.46;100.00;99537.97;4224109;34;20055;-82
2022/10/13 09:30:34;;;;;;;16.30;5.18;;;;;;;13.08;100.00;99541.38;4222855;34;20431;-82
2022/10/13 09:33:12;;;;;;;27.85;9.13;;;;;;;12.69;100.00;99514.41;4224196;33;20117;-84
2022/10/13 09:36:06;;;;;;;11.60;4.40;;;;;;;13.23;100.00;99577.75;4227288;33;20053;-81
2022/10/13 09:38:33;;;;;;;15.35;5.15;;;;;;;13.71;100.00;99540.91;4224420;33;20069;-81
2022/10/13 09:41:05;;;;;;;14.15;4.95;;;;;;;13.60;100.00;99583.28;4223492;33;20047;-83
2022/10/13 09:43:42;;;;;;;14.18;4.93;;;;;;;13.50;100.00;99588.63;4278758;33;20412;-82
2022/10/13 09:46:21;;;;;;;19.40;4.85;;;;;;;13.77;100.00;99548.00;4292568;33;20045;-83
2022/10/13 09:48:51;;;;;;;9.38;4.35;;;;;;;14.22;100.00;99583.00;4295271;33;20384;-83
2022/10/13 09:51:41;;;;;;;18.08;4.00;;;;;;;14.20;100.00;99579.72;4289264;33;20071;-82
2022/10/13 09:54:25;;;;;;;13.00;5.00;;;;;;;13.65;100.00;99574.41;4294641;33;20172;-81
2022/10/13 09:56:59;;;;;;;7.95;4.03;;;;;;;14.01;100.00;99577.44;4294439;33;20045;-83
2022/10/13 09:59:35;;;;;;;17.85;5.18;;;;;;;13.54;100.00;99532.09;4292637;33;20048;-84
2022/10/13 10:02:19;;;;;;;17.62;4.20;;;;;;;13.96;100.00;99564.66;4293785;33;20086;-82
2022/10/13 10:04:46;;;;;;;9.82;4.18;;;;;;;14.39;100.00;99550.31;4294496;33;20048;-82
2022/10/13 10:07:19;;;;;;;11.20;4.00;;;;;;;14.44;100.00;99513.25;4292873;33;20037;-83
2022/10/13 10:09:55;;;;;;;9.43;4.40;;;;;;;14.79;100.00;99498.25;4294590;33;20082;-82
2022/10/13 10:12:27;;;;;;;16.98;4.30;;;;;;;14.66;100.00;99540.22;4292721;33;20049;-83
2022/10/13 10:14:55;;;;;;;13.68;3.80;;;;;;;14.34;100.00;99478.78;4294746;33;20063;-79
2022/10/13 10:17:35;;;;;;;10.65;4.53;;;;;;;14.47;100.00;99541.69;4294796;33;20291;-77
2022/10/13 10:20:26;;;;;;;9.43;3.60;;;;;;;14.19;100.00;99502.28;4293107;33;20071;-77
2022/10/13 10:23:10;;;;;;;11.90;3.35;;;;;;;15.10;100.00;99521.94;4284134;33;20034;-77
2022/10/13 10:25:51;;;;;;;6.75;3.50;;;;;;;14.88;100.00;99521.03;4295431;33;20045;-78
2022/10/13 10:28:49;;;;;;;12.25;3.45;;;;;;;14.07;100.00;99481.63;4337527;33;20084;-79
2022/10/13 10:31:43;;;;;;;8.30;3.95;;;;;;;14.49;100.00;99528.72;4337522;33;20035;-79
2022/10/13 10:34:33;;;;;;;15.00;3.70;;;;;;;15.63;100.00;99522.53;4338703;33;20069;-77
2022/10/13 10:37:18;;;;;;;14.82;3.55;;;;;;;15.09;100.00;99518.38;4338543;33;20040;-77
2022/10/13 10:39:50;;;;;;;9.35;3.33;;;;;;;15.34;100.00;99523.03;4337934;33;20104;-78
2022/10/13 10:42:48;;;;;;;8.05;3.40;;;;;;;15.54;98.24;99488.88;4325695;33;20028;-78
2022/10/13 10:45:28;;;;;;;10.85;3.50;;;;;;;15.50;95.10;99521.16;4321184;33;20064;-77
2022/10/13 10:48:03;;;;;;;5.30;3.25;;;;;;;15.07;95.61;99482.59;4328953;33;20052;-77
2022/10/13 10:50:32;;;;;;;9.68;4.57;;;;;;;14.82;99.19;99500.44;4326623;33;20070;-78
2022/10/13 10:53:14;;;;;;;7.47;3.75;;;;;;;14.67;99.55;99475.97;4334450;33;20179;-79
2022/10/13 10:55:56;;;;;;;8.80;4.12;;;;;;;15.54;96.34;99499.72;4334961;33;20070;-78
2022/10/13 10:58:38;;;;;;;9.48;2.80;;;;;;;15.11;95.44;99464.69;4335866;33;20043;-79
2022/10/13 11:01:31;;;;;;;19.83;4.57;;;;;;;15.46;94.54;99498.37;4309184;33;20078;-78
2022/10/13 11:04:07;;;;;;;7.78;3.65;;;;;;;15.49;94.80;99503.25;4307726;33;20041;-80
2022/10/13 11:06:37;;;;;;;21.67;4.05;;;;;;;16.09;87.64;99489.94;4293472;33;20049;-79
2022/10/13 11:09:04;;;;;;;9.13;4.65;;;;;;;16.93;82.84;99486.66;4298765;33;20091;-77
2022/10/13 11:11:41;;;;;;;10.98;3.72;;;;;;;16.43;82.53;99505.59;4291473;33;20072;-79
2022/10/13 11:14:09;;;;;;;14.27;4.55;;;;;;;16.49;83.17;99458.28;4289955;33;20061;-79
2022/10/13 11:17:00;;;;;;;11.40;3.35;;;;;;;15.60;88.05;99490.50;4291576;33;20049;-79
2022/10/13 11:19:30;;;;;;;13.45;4.22;;;;;;;16.38;84.99;99458.63;4291990;33;20059;-78
2022/10/13 11:21:57;;;;;;;9.68;3.78;;;;;;;16.99;81.53;99487.44;4290541;33;20180;-80
2022/10/13 11:24:32;;;;;;;19.98;4.82;;;;;;;15.82;88.60;99484.81;4295946;33;20032;-77
2022/10/13 11:27:10;;;;;;;9.93;5.45;;;;;;;15.77;92.13;99482.13;4295070;33;20055;-79
2022/10/13 11:29:45;;;;;;;6.80;3.85;;;;;;;16.04;87.76;99481.00;4293333;33;20063;-79
2022/10/13 11:32:54;;;;;;;11.23;4.25;;;;;;;16.16;89.64;99473.34;4287624;33;20103;-79
2022/10/13 11:35:11;;;;;;;15.38;4.95;;;;;;;15.22;96.48;99431.09;4278347;33;20367;-79
2022/10/13 11:37:56;;;;;;;12.15;4.20;;;;;;;15.83;95.31;99429.44;4278856;33;20071;-77
2022/10/13 11:40:29;;;;;;;10.82;4.22;;;;;;;15.35;97.26;99427.00;4278076;33;20033;-77
2022/10/13 11:43:08;;;;;;;13.10;3.72;;;;;;;15.50;97.49;99461.47;4280395;33;20520;-79
2022/10/13 11:45:48;;;;;;;14.00;4.47;;;;;;;16.00;97.12;99469.03;4278203;33;20070;-78